Search for airport 
image banner adimage banner adimage banner ad
image banner ad

04IA - Middlekoop

Located in Packwood, United States

ICAO - 04IA, IATA -

Data provided by Airmate  

General information

Coordinates: N41°5'18" W92°3'17"
Elevation is 801 feet MSL.
Magnetic variation is 03° East
View others Airports in Iowa

Operational data

Special qualification required
Current time UTC:
Current local time:
Weather at : KFFL - Fairfield Muni ( 7 km )
METAR: KFFL 151015Z AUTO 00000KT 10SM CLR 16/16 A3008 RMK A01
View NOTAMs / SUP AIP / TFR affecting this airport [VIEW]
Communications frequencies: [VIEW]

Runways:

RWY identifierQFULength (ft)Width (ft)SurfaceLDA (ft)
18231084GRASS
36231084GRASS

Airport contact information

Address: Packwood United States

Satellite view of 04IA